Latest Weather Observations for Paraburdoo

IDW60801

Issued at 9:03 am WST Thursday 30 June 2016 (issued every 30 minutes, with the page automatically refreshed every 10 minutes)

About weather observations | Map of weather stations | Latest weather observations for WA | Other Formats
Station Details ID: 007185 Name: PARABURDOO AERO Lat: -23.17 Lon: 117.75 Height: 423.7 m
Data from the previous 72 hours. | See also: Recent months at Paraburdoo
Date/Time
WST
Temp
°C
App
Temp
°C
Dew
Point
°C
Rel
Hum
%
Delta-T
°C
Wind Press
QNH
hPa
Press
MSL
hPa
Rain since
9am
mm
Dir  Spd
km/h
Gust
km/h
Spd
kts
Gust
kts
30/09:00am 20.9 19.1 12.1 57 5.0 E 13 17 7 9 1020.7 1019.6 0.0
30/08:30am 19.7 18.1 11.7 60 4.5 E 11 17 6 9 1020.8 1019.7 0.0
30/08:00am 18.5 17.7 11.8 65 3.8 E 7 11 4 6 1020.3 1019.2 0.0
30/07:30am 17.7 17.4 12.6 72 2.9 NE 6 7 3 4 1020.5 1019.4 0.0
30/07:00am 17.5 16.5 10.9 65 3.6 ESE 7 9 4 5 1020.2 1019.1 0.0
30/06:30am 18.0 16.3 11.1 64 3.8 SE 11 13 6 7 1019.9 1018.7 0.0
30/06:00am 18.3 17.4 11.4 64 3.8 ESE 7 9 4 5 1019.9 1018.7 0.0
30/05:30am 18.6 16.6 11.4 63 4.0 ESE 13 20 7 11 1019.6 1018.4 0.0
30/05:00am 18.6 16.3 11.7 64 3.9 ESE 15 20 8 11 1019.6 1018.4 0.0
30/04:30am 18.8 16.5 11.6 63 4.0 ESE 15 20 8 11 1019.7 1018.5 0.0
30/04:00am 18.9 17.7 11.7 63 4.0 E 9 13 5 7 1019.6 1018.4 0.0
30/03:30am 19.2 17.6 11.7 62 4.2 ESE 11 15 6 8 1019.6 1018.4 0.0
30/03:00am 19.0 18.2 11.8 63 4.0 ESE 7 11 4 6 1019.8 1018.6 0.0
30/02:30am 19.0 18.4 11.8 63 4.1 SE 6 9 3 5 1019.8 1018.6 0.0
30/02:00am 19.2 18.5 12.0 63 4.1 E 7 9 4 5 1020.1 1018.9 0.0
30/01:30am 19.2 18.4 11.7 62 4.2 E 7 9 4 5 1020.4 1019.3 0.0
30/01:00am 19.2 18.3 11.3 60 4.4 E 7 11 4 6 1020.3 1019.2 0.0
30/12:30am 19.3 18.0 11.1 59 4.6 ESE 9 13 5 7 1020.4 1019.3 0.0
30/12:00am 19.7 18.3 10.9 57 4.9 SE 9 11 5 6 1020.9 1019.8 0.0
 
Date/Time
WST
Temp
°C
App
Temp
°C
Dew
Point
°C
Rel
Hum
%
Delta-T
°C
Wind Press
QNH
hPa
Press
MSL
hPa
Rain since
9am
mm
Dir  Spd
km/h
Gust
km/h
Spd
kts
Gust
kts
29/11:30pm 20.0 18.3 11.2 57 4.9 E 11 13 6 7 1020.7 1019.6 0.0
29/11:00pm 20.0 19.3 12.0 60 4.5 ESE 7 9 4 5 1021.1 1019.9 0.0
29/10:30pm 19.8 18.9 12.6 63 4.1 ESE 9 13 5 7 1020.6 1019.5 0.0
29/10:00pm 19.7 19.3 12.9 65 3.9 SE 7 9 4 5 1021.1 1019.9 0.0
29/09:30pm 20.3 19.7 12.3 60 4.6 E 7 9 4 5 1021.3 1020.1 0.0
29/09:00pm 20.8 21.3 11.7 56 5.1 CALM 0 2 0 1 1021.4 1020.2 0.0
29/08:30pm 21.0 20.2 11.6 55 5.3 S 7 11 4 6 1020.9 1019.8 0.0
29/08:00pm 20.8 19.5 11.4 55 5.3 S 9 13 5 7 1020.7 1019.6 0.0
29/07:30pm 21.7 19.9 10.8 50 6.1 S 11 17 6 9 1020.0 1018.8 0.0
29/07:00pm 21.8 19.9 10.6 49 6.2 SSE 11 17 6 9 1019.7 1018.5 0.0
29/06:30pm 22.1 20.2 10.6 48 6.4 S 11 15 6 8 1019.5 1018.3 0.0
29/06:00pm 22.5 20.2 10.6 47 6.7 S 13 17 7 9 1019.1 1017.9 0.0
29/05:30pm 23.0 21.6 10.8 46 6.9 S 9 13 5 7 1018.8 1017.6 0.0
29/05:00pm 23.6 22.0 10.3 43 7.5 S 9 11 5 6 1018.4 1017.3 0.0
29/04:30pm 23.9 23.4 10.6 43 7.5 SSE 4 6 2 3 1018.0 1016.8 0.0
29/04:00pm 24.0 22.9 9.9 41 7.9 SW 6 11 3 6 1018.0 1016.8 0.0
29/03:30pm 24.1 22.8 10.0 41 7.9 W 7 13 4 7 1018.0 1016.8 0.0
29/03:00pm 24.3 23.1 10.2 41 7.9 NW 7 11 4 6 1017.9 1016.7 0.0
29/02:30pm 24.5 24.1 9.6 39 8.3 NW 2 9 1 5 1017.7 1016.5 0.0
29/02:00pm 24.3 23.2 9.8 40 8.1 W 6 11 3 6 1017.8 1016.6 0.0
29/01:30pm 24.2 22.5 9.8 40 8.0 W 9 13 5 7 1017.8 1016.6 0.0
29/01:00pm 24.2 22.9 10.1 41 7.9 NNW 7 11 4 6 1018.2 1017.1 0.0
29/12:30pm 24.3 23.9 9.8 40 8.1 SE 2 11 1 6 1018.9 1017.7 0.0
29/12:00pm 23.5 22.8 10.2 43 7.4 W 4 13 2 7 1019.1 1017.9 0.0
29/11:30am 22.8 21.5 9.9 44 7.2 SSE 7 13 4 7 1019.6 1018.4 0.0
29/11:00am 22.9 21.1 9.3 42 7.5 NE 9 11 5 6 1019.8 1018.6 0.0
29/10:30am 21.6 20.0 8.8 44 6.9 ENE 7 9 4 5 1020.1 1018.9 0.0
29/10:00am 20.4 18.5 9.0 48 6.1 NE 9 11 5 6 1020.4 1019.3 0.0
29/09:30am 19.3 17.8 9.2 52 5.4 E 7 9 4 5 1020.6 1019.5 0.0
29/09:00am 18.6 16.3 9.1 54 5.1 ENE 11 13 6 7 1020.4 1019.3 0.0
29/08:30am 17.0 15.3 9.9 63 3.8 ENE 9 13 5 7 1020.2 1019.1 0.0
29/08:00am 15.7 13.7 10.2 70 2.9 ENE 11 15 6 8 1019.9 1018.7 0.0
29/07:30am 13.5 12.2 10.1 80 1.8 ENE 7 11 4 6 1019.9 1018.7 0.0
29/07:00am 14.0 11.9 9.6 75 2.3 ENE 11 13 6 7 1019.4 1018.2 0.0
29/06:30am 14.5 12.0 9.7 73 2.5 ENE 13 17 7 9 1019.2 1018.0 0.0
29/06:00am 14.1 11.6 9.7 75 2.3 NE 13 17 7 9 1018.9 1017.7 0.0
29/05:30am 14.1 11.7 9.9 76 2.2 NE 13 17 7 9 1018.6 1017.4 0.0
29/05:00am 13.6 11.1 9.8 78 2.0 ENE 13 15 7 8 1018.1 1016.9 0.0
29/04:30am 13.4 11.4 10.0 80 1.8 ENE 11 15 6 8 1018.6 1017.4 0.0
29/04:00am 13.3 11.2 9.9 80 1.8 E 11 15 6 8 1018.6 1017.4 0.0
29/03:30am 13.1 11.0 9.9 81 1.7 ENE 11 13 6 7 1019.0 1017.8 0.0
29/03:00am 12.7 11.1 10.1 84 1.4 E 9 13 5 7 1018.9 1017.7 0.0
29/02:30am 13.4 11.3 9.8 79 1.9 E 11 15 6 8 1019.1 1017.9 0.0
29/02:00am 13.3 10.9 10.1 81 1.7 E 13 15 7 8 1019.3 1018.1 0.0
29/01:30am 13.2 10.8 10.2 82 1.6 NE 13 15 7 8 1019.6 1018.4 0.0
29/01:00am 13.3 10.3 10.7 84 1.4 NE 17 19 9 10 1019.5 1018.3 0.0
29/12:30am 13.1 10.8 10.5 84 1.4 ENE 13 15 7 8 1019.5 1018.3 0.0
29/12:00am 12.9 10.9 11.5 91 0.8 NE 13 15 7 8 1019.4 1018.2 0.0
 
Date/Time
WST
Temp
°C
App
Temp
°C
Dew
Point
°C
Rel
Hum
%
Delta-T
°C
Wind Press
QNH
hPa
Press
MSL
hPa
Rain since
9am
mm
Dir  Spd
km/h
Gust
km/h
Spd
kts
Gust
kts
28/11:30pm 12.7 11.3 12.1 96 0.3 ENE 11 15 6 8 1019.5 1018.3 0.0
28/11:00pm 13.2 11.5 12.3 94 0.5 ENE 13 13 7 7 1019.6 1018.4 0.0
28/10:30pm 12.9 11.9 12.3 96 0.3 ENE 9 11 5 6 1019.6 1018.4 0.0
28/10:00pm 13.1 12.4 12.0 93 0.6 ENE 7 9 4 5 1019.4 1018.2 0.0
28/09:30pm 13.6 12.1 12.0 90 0.9 NE 11 11 6 6 1019.5 1018.3 0.0
28/09:00pm 14.2 13.5 11.5 84 1.5 E 6 7 3 4 1019.6 1018.4 0.0
28/08:30pm 14.8 13.7 11.8 82 1.7 NE 9 11 5 6 1019.4 1018.2 0.0
28/08:00pm 15.2 13.9 11.2 77 2.2 E 9 9 5 5 1019.3 1018.1 0.0
28/07:30pm 15.5 13.9 10.3 71 2.8 E 9 11 5 6 1019.1 1017.9 0.0
28/07:00pm 16.5 14.6 9.0 61 3.9 SSE 9 11 5 6 1018.8 1017.6 0.0
28/06:30pm 17.0 15.1 8.9 59 4.3 S 9 9 5 5 1018.4 1017.3 0.0
28/06:00pm 18.9 18.4 7.7 48 5.8 CALM 0 6 0 3 1018.1 1016.9 0.0
28/05:30pm 20.7 18.8 6.6 40 7.3 SW 6 9 3 5 1017.9 1016.7 0.0
28/05:00pm 22.1 20.3 5.5 34 8.5 NW 4 7 2 4 1017.8 1016.6 0.0
28/04:30pm 21.4 20.0 5.3 35 8.1 SSE 2 6 1 3 1017.7 1016.5 0.0
28/04:00pm 21.9 19.6 5.8 35 8.2 SW 7 13 4 7 1017.6 1016.4 0.0
28/03:30pm 21.7 18.8 4.7 33 8.5 SW 9 19 5 10 1017.4 1016.2 0.0
28/03:00pm 21.3 18.7 4.4 33 8.4 SSW 7 11 4 6 1017.4 1016.2 0.0
28/02:30pm 22.2 20.1 6.0 35 8.3 E 6 9 3 5 1017.6 1016.4 0.0
28/02:00pm 21.6 19.1 4.7 33 8.5 WNW 7 11 4 6 1017.8 1016.6 0.0
28/01:30pm 21.5 18.8 5.8 36 8.0 WNW 9 19 5 10 1018.1 1016.9 0.0
28/01:00pm 20.3 17.6 3.9 34 8.0 SW 7 13 4 7 1018.2 1017.1 0.0
28/12:30pm 20.1 17.0 5.4 38 7.4 WSW 11 15 6 8 1018.6 1017.4 0.0
28/12:00pm 19.9 17.2 2.7 32 8.2 NNW 6 9 3 5 1019.0 1017.8 0.0
28/11:30am 19.7 17.9 3.4 34 7.9 E 2 9 1 5 1019.4 1018.2 0.0
28/11:00am 19.0 16.5 4.7 39 7.0 E 7 11 4 6 1019.8 1018.6 0.0
28/10:30am 18.7 16.9 5.5 42 6.6 E 4 9 2 5 1020.2 1019.1 0.0
28/10:00am 17.1 14.1 6.0 48 5.5 NE 11 13 6 7 1020.3 1019.2 0.0
28/09:30am 16.1 13.5 7.8 58 4.3 ENE 11 15 6 8 1020.2 1019.1 0.0
28/09:00am 14.5 11.5 7.5 63 3.5 ENE 13 17 7 9 1020.4 1019.3 0.0
28/08:30am 12.4 9.9 8.3 76 2.1 ENE 11 15 6 8 1020.3 1019.2 0.0
28/08:00am 11.0 8.3 8.8 86 1.1 ENE 13 20 7 11 1019.8 1018.6 0.0
28/07:30am 9.7 8.8 9.2 97 0.3 NE 4 7 2 4 1020.0 1018.8 0.0
28/07:00am 7.9 6.1 7.8 99 0.0 NE 7 9 4 5 1019.4 1018.2 0.0
28/06:30am 8.3 5.4 8.2 99 0.0 ENE 13 17 7 9 1018.9 1017.7 0.0
28/06:00am 8.1 5.6 8.0 99 0.0 ENE 11 15 6 8 1018.7 1017.5 0.0
28/05:30am 8.1 5.6 8.0 99 0.0 E 11 13 6 7 1018.7 1017.5 0.0
28/05:00am 8.3 5.8 8.2 99 0.0 ENE 11 15 6 8 1018.4 1017.3 0.0
28/04:30am 8.5 5.7 8.4 99 0.0 ENE 13 15 7 8 1018.6 1017.4 0.0
28/04:00am 8.0 5.8 8.0 100 0.0 ENE 9 13 5 7 1018.6 1017.4 0.0
28/03:30am 7.9 6.1 7.8 99 0.0 ENE 7 9 4 5 1018.1 1016.9 0.0
28/03:00am 8.6 6.2 8.5 99 0.0 NE 11 13 6 7 1018.2 1017.1 0.0
28/02:30am 8.8 6.0 8.7 99 0.0 NE 13 17 7 9 1018.2 1017.1 0.0
28/02:00am 8.9 6.6 8.9 100 0.0 NE 11 13 6 7 1018.4 1017.3 0.0
28/01:30am 8.7 6.7 8.7 100 0.0 ENE 9 13 5 7 1018.6 1017.4 0.0
28/01:00am 8.5 6.5 8.5 100 0.0 E 9 11 5 6 1018.6 1017.4 0.0
28/12:30am 9.0 7.4 8.9 99 0.1 NE 7 11 4 6 1018.7 1017.5 0.0
28/12:00am 9.6 7.8 9.5 99 0.1 NE 9 11 5 6 1018.6 1017.4 0.0
 
Date/Time
WST
Temp
°C
App
Temp
°C
Dew
Point
°C
Rel
Hum
%
Delta-T
°C
Wind Press
QNH
hPa
Press
MSL
hPa
Rain since
9am
mm
Dir  Spd
km/h
Gust
km/h
Spd
kts
Gust
kts
27/11:30pm 9.8 8.4 9.7 99 0.1 ENE 7 9 4 5 1018.7 1017.5 0.0
27/11:00pm 10.1 8.8 10.0 99 0.1 E 7 9 4 5 1018.8 1017.6 0.0
27/10:30pm 10.6 9.0 10.3 98 0.2 NE 9 9 5 5 1018.8 1017.6 0.0
27/10:00pm 11.5 9.7 9.4 87 1.1 NE 9 9 5 5 1018.8 1017.6 0.0
27/09:30pm 11.1 9.7 8.8 86 1.2 NNE 6 9 3 5 1018.7 1017.5 0.0
27/09:00pm 12.7 10.8 9.0 78 1.9 NNW 9 11 5 6 1018.7 1017.5 0.0
27/08:30pm 13.1 11.6 8.6 74 2.3 WNW 6 7 3 4 1018.6 1017.4 0.0
27/08:00pm 14.2 12.3 7.7 65 3.3 W 7 7 4 4 1018.6 1017.4 0.0
27/07:30pm 14.7 12.6 6.5 58 4.1 S 7 9 4 5 1018.3 1017.2 0.0
27/07:00pm 15.2 12.5 5.7 53 4.6 SSW 9 9 5 5 1018.0 1016.8 0.0
27/06:30pm 16.5 13.3 5.2 47 5.5 SSW 11 13 6 7 1017.6 1016.4 0.0
27/06:00pm 17.3 14.3 5.9 47 5.7 SSW 11 13 6 7 1017.1 1015.9 0.0
27/05:30pm 18.9 16.6 4.7 39 7.0 SSW 6 13 3 7 1016.7 1015.5 0.0
27/05:00pm 20.7 18.6 2.0 29 8.8 WSW 2 9 1 5 1016.5 1015.3 0.0
27/04:30pm 20.6 17.7 2.4 30 8.7 SSW 7 9 4 5 1016.3 1015.1 0.0
27/04:00pm 20.4 17.8 3.2 32 8.3 S 6 11 3 6 1016.4 1015.2 0.0
27/03:30pm 20.3 17.4 2.6 31 8.4 S 7 15 4 8 1016.6 1015.4 0.0
27/03:00pm 20.4 18.2 3.2 32 8.3 SSW 4 11 2 6 1016.7 1015.5 0.0
27/02:30pm 20.1 16.9 2.9 32 8.2 WSW 9 15 5 8 1016.9 1015.7 0.0
27/02:00pm 20.2 17.5 3.9 34 8.0 E 7 13 4 7 1017.1 1015.9 0.0
27/01:30pm 19.6 16.8 2.9 33 8.0 WSW 7 9 4 5 1017.3 1016.1 0.0
27/01:00pm 19.9 17.7 3.2 33 8.0 NW 4 9 2 5 1017.5 1016.3 0.0
27/12:30pm 19.3 16.4 4.6 38 7.2 ESE 9 15 5 8 1018.0 1016.8 0.0
27/12:00pm 18.4 15.2 3.1 36 7.2 NNE 9 13 5 7 1018.8 1017.6 0.0
27/11:30am 17.8 14.0 3.7 39 6.7 ENE 13 19 7 10 1019.2 1018.0 0.0
27/11:00am 17.1 12.5 3.8 41 6.3 ENE 17 24 9 13 1019.6 1018.4 0.0
27/10:30am 16.4 11.6 4.4 45 5.8 ENE 19 24 10 13 1020.0 1018.8 0.0
27/10:00am 15.3 10.3 4.7 49 5.1 ENE 20 26 11 14 1020.4 1019.3 0.0
27/09:30am 14.4 10.3 6.3 58 4.0 ENE 17 20 9 11 1020.7 1019.6 0.0

Other Formats:

Comma delimited format used in spreadsheet applications
http://www.bom.gov.au/fwo/IDW60801/IDW60801.94316.axf

JavaScript Object Notation format (JSON) in row-major order
http://www.bom.gov.au/fwo/IDW60801/IDW60801.94316.json